createdAt,value
2022-12-03T00:00:35.606Z,2.01
2022-12-03T00:03:02.444Z,2.02
2022-12-03T00:05:29.149Z,2.10
2022-12-03T00:07:55.768Z,1.97
2022-12-03T00:10:22.332Z,1.92
2022-12-03T00:12:48.829Z,1.92
2022-12-03T00:15:15.436Z,1.99
2022-12-03T00:17:41.970Z,1.95
2022-12-03T00:20:09.830Z,1.97
2022-12-03T00:22:36.347Z,1.91
2022-12-03T00:25:02.950Z,1.95
2022-12-03T00:27:29.488Z,1.97
2022-12-03T00:29:55.991Z,1.86
2022-12-03T00:32:22.469Z,1.95
2022-12-03T00:34:48.986Z,1.96
2022-12-03T00:37:15.560Z,1.95
2022-12-03T00:39:42.097Z,1.95
2022-12-03T00:42:08.583Z,1.95
2022-12-03T00:44:35.205Z,1.96
2022-12-03T00:47:01.882Z,1.95
2022-12-03T00:49:28.376Z,1.99
2022-12-03T00:51:54.856Z,1.99
2022-12-03T00:54:22.786Z,2.01
2022-12-03T00:56:52.076Z,1.98
2022-12-03T00:59:18.627Z,1.98
2022-12-03T01:01:45.182Z,2.00
2022-12-03T01:04:11.829Z,1.99
2022-12-03T01:06:38.654Z,2.02
2022-12-03T01:09:05.290Z,1.99
2022-12-03T01:11:37.396Z,1.97
2022-12-03T01:14:05.955Z,1.95
2022-12-03T01:16:32.921Z,2.00
2022-12-03T01:18:59.541Z,1.99
2022-12-03T01:21:26.055Z,1.96
2022-12-03T01:23:52.598Z,1.96
2022-12-03T01:26:19.138Z,1.97
2022-12-03T01:28:45.596Z,1.95
2022-12-03T01:31:30.771Z,1.96
2022-12-03T01:33:57.379Z,1.94
2022-12-03T01:36:24.013Z,1.96
2022-12-03T01:38:50.547Z,1.98
2022-12-03T01:41:18.981Z,1.94
2022-12-03T01:43:46.061Z,1.97
2022-12-03T01:46:16.560Z,1.98
2022-12-03T01:48:43.672Z,1.97
2022-12-03T01:51:10.211Z,1.98
2022-12-03T01:53:36.853Z,1.95
2022-12-03T01:56:04.222Z,1.96
2022-12-03T01:58:31.164Z,2.06
2022-12-03T02:01:01.513Z,1.96
2022-12-03T02:03:28.575Z,1.95
2022-12-03T02:05:56.827Z,1.96
2022-12-03T02:08:37.620Z,1.98
2022-12-03T02:11:22.267Z,1.93
2022-12-03T02:13:52.742Z,2.07
2022-12-03T02:16:19.304Z,1.97
2022-12-03T02:18:46.030Z,1.97
2022-12-03T02:21:31.099Z,2.01
2022-12-03T02:24:24.814Z,2.00
2022-12-03T02:26:51.345Z,1.91
2022-12-03T02:29:17.904Z,1.96
2022-12-03T02:31:44.678Z,1.91
2022-12-03T02:34:11.623Z,1.90
2022-12-03T02:36:39.049Z,1.92
2022-12-03T02:39:05.985Z,1.89
2022-12-03T02:41:51.246Z,1.91
2022-12-03T02:44:17.750Z,1.90
2022-12-03T02:46:44.264Z,1.89
2022-12-03T02:49:10.902Z,2.03
2022-12-03T02:51:37.702Z,1.88
2022-12-03T02:54:04.461Z,1.95
2022-12-03T02:56:32.573Z,1.94
2022-12-03T02:59:02.941Z,1.88
2022-12-03T03:01:29.660Z,1.92
2022-12-03T03:03:56.752Z,1.91
2022-12-03T03:06:23.455Z,1.79
2022-12-03T03:08:50.160Z,1.90
2022-12-03T03:11:16.806Z,1.87
2022-12-03T03:13:43.728Z,1.87
2022-12-03T03:16:10.484Z,1.91
2022-12-03T03:18:37.103Z,1.89
2022-12-03T03:21:04.272Z,1.88
2022-12-03T03:23:30.819Z,2.01
2022-12-03T03:26:02.550Z,1.90
2022-12-03T03:28:30.302Z,1.90
2022-12-03T03:31:00.519Z,1.90
2022-12-03T03:33:27.534Z,1.88
2022-12-03T03:35:54.526Z,1.88
2022-12-03T03:38:22.682Z,1.85
2022-12-03T03:40:51.186Z,2.00
2022-12-03T03:43:18.387Z,2.01
2022-12-03T03:45:45.081Z,1.86
2022-12-03T03:48:13.011Z,1.85
2022-12-03T03:50:39.954Z,1.84
2022-12-03T03:53:06.780Z,1.82
2022-12-03T03:55:34.540Z,1.86
2022-12-03T03:58:01.198Z,1.87
2022-12-03T04:00:27.935Z,1.85
2022-12-03T04:02:54.427Z,1.87
2022-12-03T04:05:23.611Z,1.86
2022-12-03T04:07:50.868Z,1.87
2022-12-03T04:10:38.054Z,1.88
2022-12-03T04:13:05.604Z,1.85
2022-12-03T04:15:32.110Z,1.88
2022-12-03T04:18:17.166Z,1.84
2022-12-03T04:20:43.770Z,1.84
2022-12-03T04:23:10.359Z,1.85
2022-12-03T04:25:55.800Z,1.83
2022-12-03T04:28:41.132Z,1.83
2022-12-03T04:31:26.386Z,1.87
2022-12-03T04:34:11.757Z,1.82
2022-12-03T04:36:38.432Z,1.74
2022-12-03T04:39:07.044Z,1.88
2022-12-03T04:41:33.584Z,1.98
2022-12-03T04:44:18.453Z,1.83
2022-12-03T04:46:44.938Z,1.83
2022-12-03T04:49:12.609Z,1.84
2022-12-03T04:51:39.176Z,1.84
2022-12-03T04:54:05.764Z,1.95
2022-12-03T04:56:32.300Z,1.85
2022-12-03T04:58:58.772Z,1.85
2022-12-03T05:01:25.319Z,1.86
2022-12-03T05:03:51.918Z,1.83
2022-12-03T05:06:18.384Z,1.96
2022-12-03T05:08:44.849Z,1.86
2022-12-03T05:11:11.433Z,1.97
2022-12-03T05:13:37.957Z,1.77
2022-12-03T05:16:04.514Z,1.84
2022-12-03T05:18:30.974Z,1.83
2022-12-03T05:20:57.492Z,1.84
2022-12-03T05:23:24.774Z,1.93
2022-12-03T05:25:51.505Z,1.82
2022-12-03T05:28:18.039Z,1.85
2022-12-03T05:30:44.604Z,1.82
2022-12-03T05:33:11.097Z,1.85
2022-12-03T05:35:37.561Z,1.83
2022-12-03T05:38:04.144Z,1.83
2022-12-03T05:40:30.633Z,1.79
2022-12-03T05:42:57.251Z,1.81
2022-12-03T05:45:30.923Z,1.82
2022-12-03T05:47:58.804Z,1.79
2022-12-03T05:50:27.295Z,1.79
2022-12-03T05:52:54.655Z,1.80
2022-12-03T05:55:21.234Z,1.79
2022-12-03T05:57:48.045Z,1.79
2022-12-03T06:00:20.640Z,1.81
2022-12-03T06:02:47.747Z,1.77
2022-12-03T06:05:15.685Z,1.79
2022-12-03T06:07:42.667Z,1.79
2022-12-03T06:10:11.548Z,1.78
2022-12-03T06:12:38.215Z,1.76
2022-12-03T06:15:05.655Z,1.77
2022-12-03T06:17:32.128Z,1.78
2022-12-03T06:19:58.634Z,1.76
2022-12-03T06:22:25.202Z,1.78
2022-12-03T06:24:52.096Z,1.75
2022-12-03T06:27:19.194Z,1.76
2022-12-03T06:29:45.737Z,1.73
2022-12-03T06:32:12.341Z,1.73
2022-12-03T06:34:38.858Z,1.75
2022-12-03T06:37:05.561Z,1.75
2022-12-03T06:39:32.113Z,1.75
2022-12-03T06:42:01.428Z,1.71
2022-12-03T06:44:27.959Z,1.71
2022-12-03T06:46:54.541Z,1.72
2022-12-03T06:49:21.165Z,1.70
2022-12-03T06:51:47.658Z,1.72
2022-12-03T06:54:14.161Z,1.73
2022-12-03T06:56:45.158Z,1.70
2022-12-03T06:59:12.213Z,1.72
2022-12-03T07:01:38.752Z,1.71
2022-12-03T07:04:05.767Z,1.72
2022-12-03T07:06:32.247Z,1.71
2022-12-03T07:08:58.779Z,1.74
2022-12-03T07:11:31.126Z,1.73
2022-12-03T07:14:05.494Z,1.70
2022-12-03T07:16:33.164Z,1.69
2022-12-03T07:18:59.940Z,1.65
2022-12-03T07:21:26.458Z,1.68
2022-12-03T07:23:52.997Z,1.71
2022-12-03T07:26:19.544Z,1.68
2022-12-03T07:28:48.145Z,1.72
2022-12-03T07:31:15.195Z,1.67
2022-12-03T07:33:42.301Z,1.71
2022-12-03T07:36:09.490Z,1.68
2022-12-03T07:38:36.313Z,1.79
2022-12-03T07:41:02.835Z,1.83
2022-12-03T07:43:29.430Z,1.72
2022-12-03T07:45:55.939Z,1.83
2022-12-03T07:48:22.426Z,1.67
2022-12-03T07:50:49.005Z,1.73
2022-12-03T07:53:15.622Z,1.71
2022-12-03T07:55:42.176Z,1.70
2022-12-03T07:58:09.337Z,1.70
2022-12-03T08:00:35.967Z,1.70
2022-12-03T08:03:02.522Z,1.65
2022-12-03T08:05:29.637Z,1.70
2022-12-03T08:07:56.686Z,1.71
2022-12-03T08:10:25.313Z,1.71
2022-12-03T08:12:53.627Z,1.67
2022-12-03T08:15:26.568Z,1.71
2022-12-03T08:18:00.658Z,1.71
2022-12-03T08:20:31.691Z,1.70
2022-12-03T08:22:58.922Z,1.71
2022-12-03T08:25:28.585Z,1.71
2022-12-03T08:28:00.139Z,1.70
2022-12-03T08:30:26.673Z,1.73
2022-12-03T08:32:53.833Z,1.73
2022-12-03T08:35:27.178Z,1.71
2022-12-03T08:37:59.577Z,1.73
2022-12-03T08:40:37.343Z,1.76
2022-12-03T08:43:17.977Z,1.74
2022-12-03T08:45:45.245Z,1.69
2022-12-03T08:48:25.417Z,1.74
2022-12-03T08:50:57.564Z,1.71
2022-12-03T08:53:36.692Z,1.73
2022-12-03T08:56:20.760Z,1.74
2022-12-03T08:58:49.417Z,1.71
2022-12-03T09:01:29.572Z,1.72
2022-12-03T09:03:58.849Z,1.72
2022-12-03T09:06:25.404Z,1.73
2022-12-03T09:08:51.899Z,1.71
2022-12-03T09:11:18.394Z,1.73
2022-12-03T09:13:44.924Z,1.73
2022-12-03T09:16:11.546Z,1.71
2022-12-03T09:18:38.180Z,1.73
2022-12-03T09:21:04.918Z,1.71
2022-12-03T09:23:31.425Z,1.67
2022-12-03T09:25:58.739Z,1.68
2022-12-03T09:28:25.310Z,1.69
2022-12-03T09:30:51.813Z,1.70
2022-12-03T09:33:18.348Z,1.68
2022-12-03T09:35:44.807Z,1.68
2022-12-03T09:38:11.462Z,1.68
2022-12-03T09:40:40.442Z,1.78
2022-12-03T09:43:07.035Z,1.70
2022-12-03T09:45:34.096Z,1.69
2022-12-03T09:48:02.023Z,1.69
2022-12-03T09:50:28.852Z,1.68
2022-12-03T09:52:58.395Z,1.68
2022-12-03T09:55:27.925Z,1.70
2022-12-03T09:57:55.646Z,1.70
2022-12-03T10:00:28.479Z,1.81
2022-12-03T10:02:59.378Z,1.70
2022-12-03T10:05:25.964Z,1.80
2022-12-03T10:07:53.233Z,1.67
2022-12-03T10:10:21.754Z,1.67
2022-12-03T10:12:50.538Z,1.66
2022-12-03T10:15:19.538Z,1.67
2022-12-03T10:17:47.713Z,1.69
2022-12-03T10:20:18.972Z,1.70
2022-12-03T10:22:48.564Z,1.79
2022-12-03T10:25:19.117Z,1.67
2022-12-03T10:28:03.810Z,1.70
2022-12-03T10:30:30.451Z,1.69
2022-12-03T10:32:58.445Z,1.79
2022-12-03T10:35:37.075Z,1.62
2022-12-03T10:38:04.914Z,1.65
2022-12-03T10:40:34.282Z,1.66
2022-12-03T10:43:19.002Z,1.66
2022-12-03T10:45:47.896Z,1.64
2022-12-03T10:48:19.548Z,1.65
2022-12-03T10:50:54.994Z,1.63
2022-12-03T10:53:26.053Z,1.60
2022-12-03T10:55:52.682Z,1.59
2022-12-03T10:58:22.605Z,1.55
2022-12-03T11:00:51.223Z,1.52
2022-12-03T11:03:30.016Z,1.67
2022-12-03T11:05:57.630Z,1.56
2022-12-03T11:08:27.470Z,1.58
2022-12-03T11:10:59.483Z,1.57
2022-12-03T11:13:34.856Z,1.71
2022-12-03T11:16:03.780Z,1.61
2022-12-03T11:18:35.961Z,1.63
2022-12-03T11:21:09.892Z,1.59
2022-12-03T11:23:45.218Z,1.61
2022-12-03T11:26:39.082Z,1.60
2022-12-03T11:29:14.001Z,1.60
2022-12-03T11:31:46.448Z,1.60
2022-12-03T11:34:18.862Z,1.59
2022-12-03T11:37:10.238Z,1.62
2022-12-03T11:39:52.191Z,1.62
2022-12-03T11:42:27.872Z,1.56
2022-12-03T11:45:06.657Z,1.59
2022-12-03T11:47:36.110Z,1.56
2022-12-03T11:50:22.740Z,1.60
2022-12-03T11:52:55.320Z,1.51
2022-12-03T11:56:06.511Z,1.63
2022-12-03T11:58:33.505Z,1.60
2022-12-03T12:01:02.068Z,1.62
2022-12-03T12:03:33.716Z,1.67
2022-12-03T12:06:11.112Z,1.69
2022-12-03T12:08:51.367Z,1.76
2022-12-03T12:11:30.708Z,1.78
2022-12-03T12:14:04.322Z,1.72
2022-12-03T12:16:41.270Z,1.72
2022-12-03T12:19:27.079Z,1.75
2022-12-03T12:21:54.523Z,1.72
2022-12-03T12:24:45.689Z,1.74
2022-12-03T12:27:14.814Z,1.74
2022-12-03T12:29:43.179Z,1.76
2022-12-03T12:32:10.100Z,1.73
2022-12-03T12:34:38.096Z,1.71
2022-12-03T12:37:10.084Z,1.72
2022-12-03T12:39:36.682Z,1.83
2022-12-03T12:42:25.674Z,1.69
2022-12-03T12:44:52.406Z,1.67
2022-12-03T12:47:19.077Z,1.69
2022-12-03T12:49:51.482Z,1.65
2022-12-03T12:52:18.322Z,1.70
2022-12-03T12:54:44.868Z,1.68
2022-12-03T12:57:20.495Z,1.79
2022-12-03T12:59:47.011Z,1.82
2022-12-03T13:02:31.785Z,1.83
2022-12-03T13:05:01.048Z,1.75
2022-12-03T13:07:27.604Z,1.72
2022-12-03T13:09:56.831Z,1.71
2022-12-03T13:12:23.752Z,1.65
2022-12-03T13:14:52.107Z,1.66
2022-12-03T13:17:24.546Z,1.68
2022-12-03T13:20:00.466Z,1.70
2022-12-03T13:22:31.837Z,1.68
2022-12-03T13:25:06.800Z,1.66
2022-12-03T13:27:33.256Z,1.72
2022-12-03T13:30:06.728Z,1.72
2022-12-03T13:32:36.068Z,1.73
2022-12-03T13:35:05.696Z,1.73
2022-12-03T13:37:32.305Z,1.75
2022-12-03T13:40:09.132Z,1.76
2022-12-03T13:42:40.444Z,1.73
2022-12-03T13:45:15.660Z,1.85
2022-12-03T13:47:53.187Z,1.76
2022-12-03T13:50:37.045Z,1.75
2022-12-03T13:53:12.790Z,1.73
2022-12-03T13:55:44.829Z,1.74
2022-12-03T13:58:11.330Z,1.71
2022-12-03T14:00:37.990Z,1.72
2022-12-03T14:03:04.953Z,1.85
2022-12-03T14:05:31.558Z,1.72
2022-12-03T14:08:01.671Z,1.69
2022-12-03T14:10:29.427Z,1.63
2022-12-03T14:12:56.142Z,1.67
2022-12-03T14:15:22.659Z,1.67
2022-12-03T14:17:49.189Z,1.79
2022-12-03T14:20:15.944Z,1.67
2022-12-03T14:22:42.449Z,1.66
2022-12-03T14:25:09.462Z,1.65
2022-12-03T14:27:36.290Z,1.64
2022-12-03T14:30:03.526Z,1.64
2022-12-03T14:32:30.138Z,1.66
2022-12-03T14:34:56.787Z,1.64
2022-12-03T14:37:23.316Z,1.64
2022-12-03T14:39:49.933Z,1.75
2022-12-03T14:42:16.791Z,1.67
2022-12-03T14:44:52.490Z,1.64
2022-12-03T14:47:22.562Z,1.68
2022-12-03T14:49:50.479Z,1.63
2022-12-03T14:52:18.017Z,1.64
2022-12-03T14:54:45.218Z,1.57
2022-12-03T14:57:13.477Z,1.74
2022-12-03T14:59:44.235Z,1.64
2022-12-03T15:02:11.986Z,1.64
2022-12-03T15:04:40.072Z,1.65
2022-12-03T15:07:07.329Z,1.64
2022-12-03T15:09:34.098Z,1.65
2022-12-03T15:12:02.892Z,1.64
2022-12-03T15:14:29.476Z,1.63
2022-12-03T15:16:56.166Z,1.62
2022-12-03T15:19:22.751Z,1.56
2022-12-03T15:21:49.198Z,1.61
2022-12-03T15:24:15.722Z,1.58
2022-12-03T15:26:57.283Z,1.59
2022-12-03T15:29:23.767Z,1.62
2022-12-03T15:31:50.252Z,1.74
2022-12-03T15:34:22.202Z,1.62
2022-12-03T15:36:49.568Z,1.62
2022-12-03T15:39:16.042Z,1.60
2022-12-03T15:41:42.613Z,1.58
2022-12-03T15:44:09.127Z,1.59
2022-12-03T15:46:35.741Z,1.56
2022-12-03T15:49:02.358Z,1.56
2022-12-03T15:51:28.837Z,1.56
2022-12-03T15:53:55.295Z,1.56
2022-12-03T15:56:21.760Z,1.55
2022-12-03T15:58:48.361Z,1.62
2022-12-03T16:01:15.146Z,1.58
2022-12-03T16:03:41.787Z,1.67
2022-12-03T16:06:08.793Z,1.59
2022-12-03T16:08:35.383Z,1.58
2022-12-03T16:11:01.949Z,1.55
2022-12-03T16:13:28.430Z,1.55
2022-12-03T16:15:54.998Z,1.54
2022-12-03T16:18:21.494Z,1.54
2022-12-03T16:20:48.011Z,1.57
2022-12-03T16:23:14.522Z,1.54
2022-12-03T16:25:40.984Z,1.64
2022-12-03T16:28:07.526Z,1.56
2022-12-03T16:30:34.264Z,1.51
2022-12-03T16:33:00.905Z,1.48
2022-12-03T16:35:27.579Z,1.53
2022-12-03T16:37:54.115Z,1.50
2022-12-03T16:40:20.639Z,1.51
2022-12-03T16:42:47.176Z,1.49
2022-12-03T16:45:28.837Z,1.60
2022-12-03T16:47:55.304Z,1.49
2022-12-03T16:50:29.183Z,1.49
2022-12-03T16:52:56.661Z,1.50
2022-12-03T16:55:23.219Z,1.48
2022-12-03T16:57:49.770Z,1.48
2022-12-03T17:00:16.955Z,1.60
2022-12-03T17:02:43.572Z,1.41
2022-12-03T17:05:10.159Z,1.39
2022-12-03T17:07:36.727Z,1.39
2022-12-03T17:10:04.701Z,1.56
2022-12-03T17:12:54.203Z,1.44
2022-12-03T17:15:18.935Z,1.46
2022-12-03T17:17:45.389Z,1.42
2022-12-03T17:20:13.354Z,1.40
2022-12-03T17:22:40.321Z,1.38
2022-12-03T17:25:07.619Z,1.37
2022-12-03T17:27:34.093Z,1.51
2022-12-03T17:30:00.765Z,1.32
2022-12-03T17:32:27.310Z,1.48
2022-12-03T17:34:53.923Z,1.38
2022-12-03T17:37:20.468Z,1.36
2022-12-03T17:39:46.997Z,1.33
2022-12-03T17:42:13.548Z,1.46
2022-12-03T17:44:40.103Z,1.36
2022-12-03T17:47:06.676Z,1.35
2022-12-03T17:49:33.219Z,1.30
2022-12-03T17:51:59.751Z,1.32
2022-12-03T17:54:43.286Z,1.31
2022-12-03T17:57:12.736Z,1.24
2022-12-03T17:59:39.250Z,1.27
2022-12-03T18:02:06.248Z,1.28
2022-12-03T18:04:32.959Z,1.43
2022-12-03T18:07:02.318Z,1.37
2022-12-03T18:09:29.317Z,1.37
2022-12-03T18:11:55.841Z,1.34
2022-12-03T18:14:22.311Z,1.39
2022-12-03T18:16:48.812Z,1.28
2022-12-03T18:19:15.471Z,1.34
2022-12-03T18:21:42.077Z,1.28
2022-12-03T18:24:09.382Z,1.30
2022-12-03T18:26:35.919Z,1.44
2022-12-03T18:29:02.534Z,1.32
2022-12-03T18:31:29.188Z,1.30
2022-12-03T18:33:55.787Z,1.31
2022-12-03T18:36:25.684Z,1.30
2022-12-03T18:38:55.191Z,1.30
2022-12-03T18:41:23.338Z,1.28
2022-12-03T18:43:50.816Z,1.29
2022-12-03T18:46:51.284Z,1.29
2022-12-03T18:49:05.490Z,1.26
2022-12-03T18:51:32.031Z,1.29
2022-12-03T18:53:58.535Z,1.27
2022-12-03T18:56:25.139Z,1.26
2022-12-03T18:58:51.735Z,1.26
2022-12-03T19:01:21.171Z,1.25
2022-12-03T19:03:49.061Z,1.29
2022-12-03T19:06:19.067Z,1.27
2022-12-03T19:08:48.149Z,1.18
2022-12-03T19:11:14.953Z,1.20
2022-12-03T19:13:42.353Z,1.23
2022-12-03T19:16:10.228Z,1.35
2022-12-03T19:18:36.787Z,1.19
2022-12-03T19:21:08.032Z,1.23
2022-12-03T19:23:35.703Z,1.25
2022-12-03T19:26:03.753Z,1.17
2022-12-03T19:28:30.727Z,1.22
2022-12-03T19:31:08.952Z,1.19
2022-12-03T19:33:35.865Z,1.32
2022-12-03T19:36:04.213Z,1.37
2022-12-03T19:38:31.265Z,1.18
2022-12-03T19:41:00.550Z,1.19
2022-12-03T19:43:27.386Z,1.23
2022-12-03T19:45:54.574Z,1.16
2022-12-03T19:48:22.897Z,1.11
2022-12-03T19:51:07.921Z,1.15
2022-12-03T19:53:40.497Z,1.14
2022-12-03T19:56:09.827Z,1.13
2022-12-03T19:58:37.099Z,1.16
2022-12-03T20:01:20.363Z,1.15
2022-12-03T20:03:48.887Z,1.10
2022-12-03T20:06:16.967Z,1.24
2022-12-03T20:08:43.821Z,1.13
2022-12-03T20:11:19.719Z,1.26
2022-12-03T20:13:48.106Z,1.26
2022-12-03T20:16:15.603Z,1.05
2022-12-03T20:18:46.256Z,1.08
2022-12-03T20:21:14.339Z,1.24
2022-12-03T20:23:41.655Z,1.03
2022-12-03T20:26:10.252Z,1.25
2022-12-03T20:28:37.297Z,1.27
2022-12-03T20:31:11.770Z,1.15
2022-12-03T20:33:39.489Z,1.14
2022-12-03T20:36:06.586Z,1.26
2022-12-03T20:38:33.478Z,1.14
2022-12-03T20:41:08.396Z,1.27
2022-12-03T20:43:35.590Z,1.08
2022-12-03T20:46:09.256Z,1.09
2022-12-03T20:48:35.926Z,1.16
2022-12-03T20:51:06.828Z,1.23
2022-12-03T20:53:33.853Z,1.08
2022-12-03T20:56:01.350Z,1.06
2022-12-03T20:58:28.594Z,1.04
2022-12-03T21:00:55.145Z,1.07
2022-12-03T21:03:22.073Z,1.04
2022-12-03T21:05:48.620Z,1.03
2022-12-03T21:08:15.168Z,1.03
2022-12-03T21:10:44.912Z,1.09
2022-12-03T21:13:16.481Z,1.20
2022-12-03T21:15:44.010Z,1.11
2022-12-03T21:18:12.575Z,1.20
2022-12-03T21:20:44.006Z,1.10
2022-12-03T21:23:11.229Z,1.13
2022-12-03T21:25:38.089Z,1.07
2022-12-03T21:28:06.579Z,1.00
2022-12-03T21:30:34.035Z,0.93
2022-12-03T21:33:00.549Z,1.05
2022-12-03T21:35:27.083Z,1.01
2022-12-03T21:37:53.566Z,1.00
2022-12-03T21:40:20.562Z,1.08
2022-12-03T21:42:47.264Z,1.11
2022-12-03T21:45:14.195Z,1.13
2022-12-03T21:47:40.791Z,1.03
2022-12-03T21:50:11.056Z,0.90
2022-12-03T21:52:37.575Z,0.91
2022-12-03T21:55:04.271Z,1.07
2022-12-03T21:57:30.874Z,1.10
2022-12-03T21:59:57.696Z,1.12
2022-12-03T22:02:24.322Z,0.97
2022-12-03T22:04:51.018Z,0.94
2022-12-03T22:07:17.602Z,0.91
2022-12-03T22:09:44.119Z,0.95
2022-12-03T22:12:10.642Z,0.93
2022-12-03T22:14:37.394Z,1.09
2022-12-03T22:17:03.903Z,0.93
2022-12-03T22:19:30.378Z,0.95
2022-12-03T22:21:56.993Z,0.90
2022-12-03T22:24:23.962Z,1.06
2022-12-03T22:26:52.158Z,0.97
2022-12-03T22:29:18.712Z,1.07
2022-12-03T22:31:45.265Z,1.04
2022-12-03T22:34:11.828Z,0.93
2022-12-03T22:36:38.377Z,0.95
2022-12-03T22:39:04.849Z,0.89
2022-12-03T22:41:31.396Z,0.85
2022-12-03T22:43:57.945Z,0.93
2022-12-03T22:46:24.528Z,1.05
2022-12-03T22:48:51.059Z,1.00
2022-12-03T22:51:21.150Z,0.95
2022-12-03T22:53:52.863Z,0.99
2022-12-03T22:56:19.318Z,0.98
2022-12-03T22:58:45.829Z,0.96
2022-12-03T23:01:24.418Z,1.11
2022-12-03T23:03:51.080Z,1.12
2022-12-03T23:06:18.722Z,0.98
2022-12-03T23:08:45.461Z,0.99
2022-12-03T23:11:12.072Z,0.98
2022-12-03T23:13:39.197Z,1.09
2022-12-03T23:16:06.574Z,0.99
2022-12-03T23:18:33.464Z,0.97
2022-12-03T23:21:00.114Z,0.93
2022-12-03T23:23:27.974Z,0.85
2022-12-03T23:25:59.477Z,0.86
2022-12-03T23:28:27.285Z,0.96
2022-12-03T23:30:54.220Z,1.01
2022-12-03T23:33:21.469Z,0.92
2022-12-03T23:35:48.258Z,0.93
2022-12-03T23:38:15.421Z,0.87
2022-12-03T23:40:47.744Z,0.87
2022-12-03T23:43:14.962Z,1.04
2022-12-03T23:45:41.506Z,0.82
2022-12-03T23:48:08.002Z,0.89
2022-12-03T23:50:34.868Z,0.91
2022-12-03T23:53:01.447Z,0.90
2022-12-03T23:55:27.934Z,0.87
2022-12-03T23:57:54.524Z,1.01
